sensor_id;sensor_type;location;lat;lon;timestamp;pressure;altitude;pressure_sealevel;temperature;humidity
81354;BME280;70810;52.038;8.524;2024-02-21T00:00:36;100857.84;;;7.76;87.44
81354;BME280;70810;52.038;8.524;2024-02-21T00:03:06;100861.38;;;7.76;87.51
81354;BME280;70810;52.038;8.524;2024-02-21T00:05:32;100858.03;;;7.68;87.09
81354;BME280;70810;52.038;8.524;2024-02-21T00:07:59;100859.63;;;7.75;87.22
81354;BME280;70810;52.038;8.524;2024-02-21T00:10:28;100851.81;;;7.69;86.48
81354;BME280;70810;52.038;8.524;2024-02-21T00:12:58;100852.56;;;7.74;86.67
81354;BME280;70810;52.038;8.524;2024-02-21T00:15:26;100851.72;;;7.72;86.28
81354;BME280;70810;52.038;8.524;2024-02-21T00:17:53;100857.22;;;7.66;87.07
81354;BME280;70810;52.038;8.524;2024-02-21T00:20:24;100842.06;;;7.66;86.86
81354;BME280;70810;52.038;8.524;2024-02-21T00:22:52;100841.25;;;7.64;86.38
81354;BME280;70810;52.038;8.524;2024-02-21T00:25:20;100851.56;;;7.77;86.41
81354;BME280;70810;52.038;8.524;2024-02-21T00:27:49;100852.59;;;7.73;86.66
81354;BME280;70810;52.038;8.524;2024-02-21T00:30:21;100830.59;;;7.63;86.70
81354;BME280;70810;52.038;8.524;2024-02-21T00:32:48;100819.06;;;7.62;86.36
81354;BME280;70810;52.038;8.524;2024-02-21T00:35:15;100832.25;;;7.67;86.55
81354;BME280;70810;52.038;8.524;2024-02-21T00:37:45;100825.25;;;7.63;86.87
81354;BME280;70810;52.038;8.524;2024-02-21T00:40:12;100824.25;;;7.67;86.77
81354;BME280;70810;52.038;8.524;2024-02-21T00:42:41;100812.63;;;7.70;86.15
81354;BME280;70810;52.038;8.524;2024-02-21T00:45:08;100799.94;;;7.78;87.03
81354;BME280;70810;52.038;8.524;2024-02-21T00:47:36;100798.44;;;7.68;86.66
81354;BME280;70810;52.038;8.524;2024-02-21T00:50:05;100803.59;;;7.74;86.38
81354;BME280;70810;52.038;8.524;2024-02-21T00:52:34;100804.44;;;7.76;86.70
81354;BME280;70810;52.038;8.524;2024-02-21T00:55:04;100800.03;;;7.73;85.92
81354;BME280;70810;52.038;8.524;2024-02-21T00:57:30;100797.66;;;7.64;86.22
81354;BME280;70810;52.038;8.524;2024-02-21T00:59:58;100792.13;;;7.70;86.57
81354;BME280;70810;52.038;8.524;2024-02-21T01:02:25;100794.75;;;7.72;86.41
81354;BME280;70810;52.038;8.524;2024-02-21T01:04:51;100780.44;;;7.74;86.04
81354;BME280;70810;52.038;8.524;2024-02-21T01:07:18;100781.94;;;7.84;85.73
81354;BME280;70810;52.038;8.524;2024-02-21T01:09:44;100792.25;;;7.97;84.92
81354;BME280;70810;52.038;8.524;2024-02-21T01:12:14;100790.69;;;7.90;85.52
81354;BME280;70810;52.038;8.524;2024-02-21T01:14:40;100785.47;;;7.85;85.12
81354;BME280;70810;52.038;8.524;2024-02-21T01:17:07;100788.38;;;7.77;85.73
81354;BME280;70810;52.038;8.524;2024-02-21T01:19:33;100777.84;;;7.71;85.36
81354;BME280;70810;52.038;8.524;2024-02-21T01:22:00;100789.19;;;7.79;85.43
81354;BME280;70810;52.038;8.524;2024-02-21T01:24:27;100784.59;;;7.84;85.41
81354;BME280;70810;52.038;8.524;2024-02-21T01:26:53;100780.91;;;7.89;85.59
81354;BME280;70810;52.038;8.524;2024-02-21T01:29:24;100779.13;;;7.89;84.33
81354;BME280;70810;52.038;8.524;2024-02-21T01:31:53;100774.78;;;7.85;85.03
81354;BME280;70810;52.038;8.524;2024-02-21T01:34:19;100783.66;;;7.85;85.08
81354;BME280;70810;52.038;8.524;2024-02-21T01:36:47;100763.41;;;7.78;84.74
81354;BME280;70810;52.038;8.524;2024-02-21T01:39:14;100768.66;;;7.81;84.71
81354;BME280;70810;52.038;8.524;2024-02-21T01:41:43;100775.53;;;7.90;84.21
81354;BME280;70810;52.038;8.524;2024-02-21T01:44:10;100771.44;;;7.77;85.19
81354;BME280;70810;52.038;8.524;2024-02-21T01:46:40;100762.56;;;7.76;85.17
81354;BME280;70810;52.038;8.524;2024-02-21T01:49:08;100761.72;;;7.76;84.68
81354;BME280;70810;52.038;8.524;2024-02-21T01:51:36;100755.38;;;7.78;84.87
81354;BME280;70810;52.038;8.524;2024-02-21T01:54:03;100753.66;;;7.77;84.63
81354;BME280;70810;52.038;8.524;2024-02-21T01:56:31;100755.22;;;7.84;85.13
81354;BME280;70810;52.038;8.524;2024-02-21T01:59:02;100755.88;;;7.93;84.32
81354;BME280;70810;52.038;8.524;2024-02-21T02:01:30;100748.25;;;7.79;84.66
81354;BME280;70810;52.038;8.524;2024-02-21T02:04:00;100745.03;;;7.68;85.69
81354;BME280;70810;52.038;8.524;2024-02-21T02:06:27;100737.81;;;7.71;85.82
81354;BME280;70810;52.038;8.524;2024-02-21T02:08:55;100738.50;;;7.78;85.35
81354;BME280;70810;52.038;8.524;2024-02-21T02:11:21;100731.47;;;7.74;84.93
81354;BME280;70810;52.038;8.524;2024-02-21T02:13:48;100732.09;;;7.83;84.66
81354;BME280;70810;52.038;8.524;2024-02-21T02:16:15;100730.25;;;7.85;84.30
81354;BME280;70810;52.038;8.524;2024-02-21T02:18:41;100722.19;;;7.87;84.92
81354;BME280;70810;52.038;8.524;2024-02-21T02:21:23;100716.03;;;7.85;85.29
81354;BME280;70810;52.038;8.524;2024-02-21T02:23:59;100719.81;;;7.78;84.75
81354;BME280;70810;52.038;8.524;2024-02-21T02:26:26;100705.84;;;7.68;85.07
81354;BME280;70810;52.038;8.524;2024-02-21T02:28:53;100692.53;;;7.66;85.39
81354;BME280;70810;52.038;8.524;2024-02-21T02:31:21;100721.63;;;7.77;85.09
81354;BME280;70810;52.038;8.524;2024-02-21T02:33:49;100708.19;;;7.79;85.61
81354;BME280;70810;52.038;8.524;2024-02-21T02:36:17;100716.34;;;7.74;85.48
81354;BME280;70810;52.038;8.524;2024-02-21T02:38:44;100710.78;;;7.82;85.43
81354;BME280;70810;52.038;8.524;2024-02-21T02:41:14;100702.91;;;7.77;84.93
81354;BME280;70810;52.038;8.524;2024-02-21T02:43:42;100704.97;;;7.68;85.72
81354;BME280;70810;52.038;8.524;2024-02-21T02:46:10;100695.22;;;7.66;85.56
81354;BME280;70810;52.038;8.524;2024-02-21T02:48:36;100691.81;;;7.61;86.13
81354;BME280;70810;52.038;8.524;2024-02-21T02:51:06;100684.78;;;7.59;86.27
81354;BME280;70810;52.038;8.524;2024-02-21T02:53:32;100674.72;;;7.67;86.13
81354;BME280;70810;52.038;8.524;2024-02-21T02:55:59;100665.84;;;7.66;85.31
81354;BME280;70810;52.038;8.524;2024-02-21T02:58:27;100659.47;;;7.72;85.30
81354;BME280;70810;52.038;8.524;2024-02-21T03:00:54;100654.84;;;7.77;85.05
81354;BME280;70810;52.038;8.524;2024-02-21T03:03:21;100645.31;;;7.69;85.59
81354;BME280;70810;52.038;8.524;2024-02-21T03:05:49;100646.19;;;7.69;85.53
81354;BME280;70810;52.038;8.524;2024-02-21T03:08:17;100637.47;;;7.64;85.63
81354;BME280;70810;52.038;8.524;2024-02-21T03:10:45;100628.50;;;7.65;86.14
81354;BME280;70810;52.038;8.524;2024-02-21T03:13:12;100622.97;;;7.71;85.66
81354;BME280;70810;52.038;8.524;2024-02-21T03:15:44;100614.19;;;7.68;85.39
81354;BME280;70810;52.038;8.524;2024-02-21T03:18:11;100618.00;;;7.60;85.76
81354;BME280;70810;52.038;8.524;2024-02-21T03:20:39;100628.50;;;7.65;85.38
81354;BME280;70810;52.038;8.524;2024-02-21T03:23:06;100606.47;;;7.58;85.58
81354;BME280;70810;52.038;8.524;2024-02-21T03:25:33;100609.97;;;7.60;85.30
81354;BME280;70810;52.038;8.524;2024-02-21T03:28:00;100614.16;;;7.69;85.79
81354;BME280;70810;52.038;8.524;2024-02-21T03:30:29;100613.16;;;7.72;84.71
81354;BME280;70810;52.038;8.524;2024-02-21T03:32:57;100607.91;;;7.69;85.34
81354;BME280;70810;52.038;8.524;2024-02-21T03:35:23;100616.81;;;7.69;85.42
81354;BME280;70810;52.038;8.524;2024-02-21T03:37:51;100617.69;;;7.70;85.36
81354;BME280;70810;52.038;8.524;2024-02-21T03:40:20;100621.88;;;7.78;85.25
81354;BME280;70810;52.038;8.524;2024-02-21T03:42:48;100616.38;;;7.83;84.75
81354;BME280;70810;52.038;8.524;2024-02-21T03:45:15;100626.25;;;7.81;84.60
81354;BME280;70810;52.038;8.524;2024-02-21T03:47:42;100620.91;;;7.81;84.70
81354;BME280;70810;52.038;8.524;2024-02-21T03:50:10;100625.25;;;7.83;84.52
81354;BME280;70810;52.038;8.524;2024-02-21T03:52:39;100625.13;;;7.88;83.85
81354;BME280;70810;52.038;8.524;2024-02-21T03:55:06;100619.19;;;7.78;84.73
81354;BME280;70810;52.038;8.524;2024-02-21T03:57:37;100636.03;;;7.80;83.83
81354;BME280;70810;52.038;8.524;2024-02-21T04:00:05;100635.16;;;7.80;84.25
81354;BME280;70810;52.038;8.524;2024-02-21T04:02:39;100630.88;;;7.76;83.91
81354;BME280;70810;52.038;8.524;2024-02-21T04:05:09;100636.16;;;7.77;84.02
81354;BME280;70810;52.038;8.524;2024-02-21T04:07:37;100638.63;;;7.83;83.52
81354;BME280;70810;52.038;8.524;2024-02-21T04:10:06;100625.34;;;7.80;83.72
81354;BME280;70810;52.038;8.524;2024-02-21T04:12:37;100634.41;;;7.76;83.85
81354;BME280;70810;52.038;8.524;2024-02-21T04:15:04;100636.88;;;7.82;83.24
81354;BME280;70810;52.038;8.524;2024-02-21T04:17:31;100632.41;;;7.83;83.26
81354;BME280;70810;52.038;8.524;2024-02-21T04:20:02;100612.41;;;7.68;83.93
81354;BME280;70810;52.038;8.524;2024-02-21T04:22:32;100629.91;;;7.77;83.48
81354;BME280;70810;52.038;8.524;2024-02-21T04:24:59;100633.38;;;7.80;83.60
81354;BME280;70810;52.038;8.524;2024-02-21T04:27:26;100630.13;;;7.71;83.69
81354;BME280;70810;52.038;8.524;2024-02-21T04:29:53;100633.41;;;7.79;84.00
81354;BME280;70810;52.038;8.524;2024-02-21T04:32:21;100637.50;;;7.91;84.06
81354;BME280;70810;52.038;8.524;2024-02-21T04:34:48;100638.47;;;7.88;83.37
81354;BME280;70810;52.038;8.524;2024-02-21T04:37:14;100634.22;;;7.82;83.70
81354;BME280;70810;52.038;8.524;2024-02-21T04:39:45;100631.53;;;7.82;83.40
81354;BME280;70810;52.038;8.524;2024-02-21T04:42:12;100638.63;;;7.83;83.53
81354;BME280;70810;52.038;8.524;2024-02-21T04:44:40;100637.41;;;7.94;82.81
81354;BME280;70810;52.038;8.524;2024-02-21T04:47:07;100640.47;;;7.81;83.40
81354;BME280;70810;52.038;8.524;2024-02-21T04:49:34;100639.78;;;7.75;83.66
81354;BME280;70810;52.038;8.524;2024-02-21T04:52:01;100643.13;;;7.81;84.37
81354;BME280;70810;52.038;8.524;2024-02-21T04:54:28;100636.09;;;7.79;84.73
81354;BME280;70810;52.038;8.524;2024-02-21T04:57:01;100643.81;;;7.88;84.92
81354;BME280;70810;52.038;8.524;2024-02-21T04:59:27;100642.81;;;7.91;84.53
81354;BME280;70810;52.038;8.524;2024-02-21T05:01:54;100640.38;;;7.84;84.67
81354;BME280;70810;52.038;8.524;2024-02-21T05:04:22;100648.63;;;7.77;85.66
81354;BME280;70810;52.038;8.524;2024-02-21T05:06:49;100635.25;;;7.77;85.46
81354;BME280;70810;52.038;8.524;2024-02-21T05:09:18;100633.03;;;7.63;86.34
81354;BME280;70810;52.038;8.524;2024-02-21T05:11:45;100624.25;;;7.59;87.09
81354;BME280;70810;52.038;8.524;2024-02-21T05:14:14;100614.28;;;7.64;86.68
81354;BME280;70810;52.038;8.524;2024-02-21T05:16:42;100623.56;;;7.53;87.19
81354;BME280;70810;52.038;8.524;2024-02-21T05:19:08;100625.41;;;7.51;87.42
81354;BME280;70810;52.038;8.524;2024-02-21T05:21:35;100625.34;;;7.52;87.03
81354;BME280;70810;52.038;8.524;2024-02-21T05:24:04;100619.41;;;7.42;87.89
81354;BME280;70810;52.038;8.524;2024-02-21T05:26:33;100601.66;;;7.41;87.94
81354;BME280;70810;52.038;8.524;2024-02-21T05:29:09;100593.47;;;7.47;86.98
81354;BME280;70810;52.038;8.524;2024-02-21T05:31:57;100588.16;;;7.46;88.18
81354;BME280;70810;52.038;8.524;2024-02-21T05:34:26;100594.53;;;7.42;88.74
81354;BME280;70810;52.038;8.524;2024-02-21T05:36:53;100596.88;;;7.53;87.64
81354;BME280;70810;52.038;8.524;2024-02-21T05:39:19;100599.53;;;7.53;87.98
81354;BME280;70810;52.038;8.524;2024-02-21T05:41:48;100591.94;;;7.39;88.12
81354;BME280;70810;52.038;8.524;2024-02-21T05:44:15;100592.72;;;7.42;88.31
81354;BME280;70810;52.038;8.524;2024-02-21T05:46:42;100592.78;;;7.41;89.17
81354;BME280;70810;52.038;8.524;2024-02-21T05:49:09;100581.03;;;7.46;88.31
81354;BME280;70810;52.038;8.524;2024-02-21T05:51:36;100574.13;;;7.39;88.62
81354;BME280;70810;52.038;8.524;2024-02-21T05:54:03;100580.25;;;7.43;88.27
81354;BME280;70810;52.038;8.524;2024-02-21T05:56:29;100573.31;;;7.37;88.45
81354;BME280;70810;52.038;8.524;2024-02-21T05:58:56;100576.72;;;7.42;88.68
81354;BME280;70810;52.038;8.524;2024-02-21T06:01:22;100568.72;;;7.42;88.23
81354;BME280;70810;52.038;8.524;2024-02-21T06:03:49;100560.69;;;7.42;88.41
81354;BME280;70810;52.038;8.524;2024-02-21T06:06:17;100561.56;;;7.43;88.28
81354;BME280;70810;52.038;8.524;2024-02-21T06:08:44;100566.09;;;7.41;88.00
81354;BME280;70810;52.038;8.524;2024-02-21T06:11:10;100556.41;;;7.38;87.92
81354;BME280;70810;52.038;8.524;2024-02-21T06:13:38;100564.28;;;7.41;87.73
81354;BME280;70810;52.038;8.524;2024-02-21T06:16:06;100568.44;;;7.50;87.50
81354;BME280;70810;52.038;8.524;2024-02-21T06:18:35;100571.00;;;7.55;87.14
81354;BME280;70810;52.038;8.524;2024-02-21T06:21:02;100575.31;;;7.59;87.24
81354;BME280;70810;52.038;8.524;2024-02-21T06:23:30;100570.22;;;7.51;87.22
81354;BME280;70810;52.038;8.524;2024-02-21T06:25:56;100569.88;;;7.62;86.83
81354;BME280;70810;52.038;8.524;2024-02-21T06:32:02;100566.38;;;7.60;86.48
81354;BME280;70810;52.038;8.524;2024-02-21T06:34:28;100561.75;;;7.65;86.32
81354;BME280;70810;52.038;8.524;2024-02-21T06:36:55;100553.06;;;7.58;85.77
81354;BME280;70810;52.038;8.524;2024-02-21T06:39:23;100552.84;;;7.66;86.51
81354;BME280;70810;52.038;8.524;2024-02-21T06:41:50;100539.63;;;7.61;86.45
81354;BME280;70810;52.038;8.524;2024-02-21T06:44:18;100536.09;;;7.61;86.65
81354;BME280;70810;52.038;8.524;2024-02-21T06:46:44;100533.44;;;7.61;85.98
81354;BME280;70810;52.038;8.524;2024-02-21T06:49:11;100532.47;;;7.62;85.65
81354;BME280;70810;52.038;8.524;2024-02-21T06:51:43;100520.84;;;7.64;85.43
81354;BME280;70810;52.038;8.524;2024-02-21T06:54:16;100525.47;;;7.59;85.27
81354;BME280;70810;52.038;8.524;2024-02-21T06:56:46;100524.25;;;7.70;84.54
81354;BME280;70810;52.038;8.524;2024-02-21T06:59:13;100519.63;;;7.75;84.01
81354;BME280;70810;52.038;8.524;2024-02-21T07:01:44;100509.75;;;7.77;84.26
81354;BME280;70810;52.038;8.524;2024-02-21T07:04:11;100507.91;;;7.79;84.18
81354;BME280;70810;52.038;8.524;2024-02-21T07:06:38;100512.47;;;7.75;82.96
81354;BME280;70810;52.038;8.524;2024-02-21T07:09:04;100507.91;;;7.79;83.04
81354;BME280;70810;52.038;8.524;2024-02-21T07:11:31;100495.44;;;7.79;83.07
81354;BME280;70810;52.038;8.524;2024-02-21T07:13:59;100496.50;;;7.74;82.56
81354;BME280;70810;52.038;8.524;2024-02-21T07:16:26;100514.91;;;7.83;82.22
81354;BME280;70810;52.038;8.524;2024-02-21T07:18:54;100511.28;;;7.84;82.02
81354;BME280;70810;52.038;8.524;2024-02-21T07:21:27;100510.38;;;7.85;81.73
81354;BME280;70810;52.038;8.524;2024-02-21T07:24:02;100522.03;;;7.82;82.33
81354;BME280;70810;52.038;8.524;2024-02-21T07:26:32;100524.63;;;7.84;82.07
81354;BME280;70810;52.038;8.524;2024-02-21T07:29:00;100523.91;;;7.79;81.94
81354;BME280;70810;52.038;8.524;2024-02-21T07:31:38;100535.88;;;7.94;81.21
81354;BME280;70810;52.038;8.524;2024-02-21T07:34:08;100533.16;;;7.95;80.79
81354;BME280;70810;52.038;8.524;2024-02-21T07:36:34;100539.38;;;7.96;80.49
81354;BME280;70810;52.038;8.524;2024-02-21T07:39:08;100535.78;;;7.97;80.81
81354;BME280;70810;52.038;8.524;2024-02-21T07:41:42;100532.31;;;7.95;80.57
81354;BME280;70810;52.038;8.524;2024-02-21T07:44:15;100519.09;;;7.90;79.96
81354;BME280;70810;52.038;8.524;2024-02-21T07:46:43;100539.09;;;8.05;79.57
81354;BME280;70810;52.038;8.524;2024-02-21T07:49:09;100522.97;;;8.08;79.99
81354;BME280;70810;52.038;8.524;2024-02-21T07:51:36;100531.69;;;8.13;79.11
81354;BME280;70810;52.038;8.524;2024-02-21T07:54:03;100533.91;;;8.26;79.87
81354;BME280;70810;52.038;8.524;2024-02-21T07:56:30;100538.59;;;8.19;78.79
81354;BME280;70810;52.038;8.524;2024-02-21T07:58:59;100513.09;;;8.10;78.44
81354;BME280;70810;52.038;8.524;2024-02-21T08:01:27;100526.00;;;8.22;79.32
81354;BME280;70810;52.038;8.524;2024-02-21T08:03:57;100529.06;;;8.37;78.91
81354;BME280;70810;52.038;8.524;2024-02-21T08:06:31;100505.38;;;8.26;79.01
81354;BME280;70810;52.038;8.524;2024-02-21T08:09:01;100523.94;;;8.31;78.34
81354;BME280;70810;52.038;8.524;2024-02-21T08:11:28;100524.53;;;8.39;78.17
81354;BME280;70810;52.038;8.524;2024-02-21T08:13:54;100527.16;;;8.40;77.92
81354;BME280;70810;52.038;8.524;2024-02-21T08:16:21;100511.56;;;8.53;77.98
81354;BME280;70810;52.038;8.524;2024-02-21T08:18:49;100515.25;;;8.51;77.41
81354;BME280;70810;52.038;8.524;2024-02-21T08:21:31;100504.91;;;8.65;76.87
81354;BME280;70810;52.038;8.524;2024-02-21T08:24:29;100501.53;;;8.60;76.86
81354;BME280;70810;52.038;8.524;2024-02-21T08:26:59;100491.94;;;8.54;76.77
81354;BME280;70810;52.038;8.524;2024-02-21T08:29:25;100493.59;;;8.57;76.59
81354;BME280;70810;52.038;8.524;2024-02-21T08:31:53;100487.19;;;8.63;76.62
81354;BME280;70810;52.038;8.524;2024-02-21T08:34:21;100481.47;;;8.95;75.66
81354;BME280;70810;52.038;8.524;2024-02-21T08:36:50;100489.25;;;9.02;75.17
81354;BME280;70810;52.038;8.524;2024-02-21T08:39:22;100479.75;;;9.17;74.35
81354;BME280;70810;52.038;8.524;2024-02-21T08:41:54;100478.47;;;9.27;74.25
81354;BME280;70810;52.038;8.524;2024-02-21T08:44:22;100472.66;;;9.38;73.66
81354;BME280;70810;52.038;8.524;2024-02-21T08:46:59;100476.72;;;9.48;72.87
81354;BME280;70810;52.038;8.524;2024-02-21T08:49:31;100474.09;;;9.24;73.52
81354;BME280;70810;52.038;8.524;2024-02-21T08:51:58;100465.81;;;9.52;73.71
81354;BME280;70810;52.038;8.524;2024-02-21T08:54:26;100469.34;;;9.53;72.10
81354;BME280;70810;52.038;8.524;2024-02-21T08:56:54;100464.50;;;9.63;72.75
81354;BME280;70810;52.038;8.524;2024-02-21T08:59:22;100457.66;;;9.56;72.23
81354;BME280;70810;52.038;8.524;2024-02-21T09:01:48;100454.59;;;9.43;72.98
81354;BME280;70810;52.038;8.524;2024-02-21T09:04:15;100452.03;;;9.62;72.29
81354;BME280;70810;52.038;8.524;2024-02-21T09:06:43;100444.00;;;9.62;72.47
81354;BME280;70810;52.038;8.524;2024-02-21T09:09:11;100449.41;;;9.60;72.49
81354;BME280;70810;52.038;8.524;2024-02-21T09:11:38;100449.19;;;9.87;71.22
81354;BME280;70810;52.038;8.524;2024-02-21T09:14:06;100447.78;;;9.99;71.24
81354;BME280;70810;52.038;8.524;2024-02-21T09:16:32;100452.41;;;10.16;69.06
81354;BME280;70810;52.038;8.524;2024-02-21T09:18:59;100444.97;;;10.02;70.46
81354;BME280;70810;52.038;8.524;2024-02-21T09:21:29;100449.84;;;9.92;70.73
81354;BME280;70810;52.038;8.524;2024-02-21T09:23:57;100443.03;;;9.85;70.64
81354;BME280;70810;52.038;8.524;2024-02-21T09:26:23;100446.50;;;9.87;70.15
81354;BME280;70810;52.038;8.524;2024-02-21T09:28:50;100444.91;;;10.03;70.70
81354;BME280;70810;52.038;8.524;2024-02-21T09:31:17;100433.34;;;9.81;70.85
81354;BME280;70810;52.038;8.524;2024-02-21T09:33:43;100445.81;;;9.82;70.97
81354;BME280;70810;52.038;8.524;2024-02-21T09:36:10;100428.66;;;9.86;70.32
81354;BME280;70810;52.038;8.524;2024-02-21T09:38:37;100435.16;;;10.21;69.35
81354;BME280;70810;52.038;8.524;2024-02-21T09:41:14;100428.47;;;10.11;69.00
81354;BME280;70810;52.038;8.524;2024-02-21T09:43:42;100432.84;;;10.14;69.36
81354;BME280;70810;52.038;8.524;2024-02-21T09:46:13;100430.94;;;10.36;68.31
81354;BME280;70810;52.038;8.524;2024-02-21T09:48:50;100409.38;;;10.39;68.21
81354;BME280;70810;52.038;8.524;2024-02-21T09:51:34;100408.56;;;10.37;68.69
81354;BME280;70810;52.038;8.524;2024-02-21T09:54:47;100395.09;;;10.58;66.90
81354;BME280;70810;52.038;8.524;2024-02-21T09:57:37;100397.19;;;10.70;66.23
81354;BME280;70810;52.038;8.524;2024-02-21T10:00:06;100389.28;;;10.48;67.11
81354;BME280;70810;52.038;8.524;2024-02-21T10:02:33;100393.41;;;10.16;67.70
81354;BME280;70810;52.038;8.524;2024-02-21T10:05:00;100401.38;;;10.38;67.42
81354;BME280;70810;52.038;8.524;2024-02-21T10:07:29;100391.63;;;10.56;67.51
81354;BME280;70810;52.038;8.524;2024-02-21T10:10:00;100395.22;;;10.36;66.99
81354;BME280;70810;52.038;8.524;2024-02-21T10:12:27;100392.47;;;10.37;67.10
81354;BME280;70810;52.038;8.524;2024-02-21T10:15:01;100392.50;;;10.56;66.48
81354;BME280;70810;52.038;8.524;2024-02-21T10:17:28;100396.03;;;10.38;66.23
81354;BME280;70810;52.038;8.524;2024-02-21T10:19:55;100384.00;;;10.47;66.31
81354;BME280;70810;52.038;8.524;2024-02-21T10:22:22;100376.91;;;10.25;67.00
81354;BME280;70810;52.038;8.524;2024-02-21T10:24:51;100376.91;;;10.25;67.58
81354;BME280;70810;52.038;8.524;2024-02-21T10:27:23;100377.47;;;10.33;66.17
81354;BME280;70810;52.038;8.524;2024-02-21T10:29:50;100368.19;;;10.20;66.52
81354;BME280;70810;52.038;8.524;2024-02-21T10:32:18;100379.44;;;10.28;66.62
81354;BME280;70810;52.038;8.524;2024-02-21T10:34:45;100383.19;;;10.05;67.35
81354;BME280;70810;52.038;8.524;2024-02-21T10:37:17;100358.47;;;9.98;66.62
81354;BME280;70810;52.038;8.524;2024-02-21T10:39:44;100368.00;;;9.85;67.69
81354;BME280;70810;52.038;8.524;2024-02-21T10:42:12;100367.88;;;9.88;67.68
81354;BME280;70810;52.038;8.524;2024-02-21T10:44:39;100353.19;;;9.97;66.74
81354;BME280;70810;52.038;8.524;2024-02-21T10:47:08;100357.06;;;10.29;66.13
81354;BME280;70810;52.038;8.524;2024-02-21T10:49:57;100353.72;;;10.05;67.30
81354;BME280;70810;52.038;8.524;2024-02-21T10:52:33;100349.78;;;9.93;67.74
81354;BME280;70810;52.038;8.524;2024-02-21T10:55:10;100347.22;;;9.90;67.24
81354;BME280;70810;52.038;8.524;2024-02-21T10:57:41;100348.50;;;10.02;67.87
81354;BME280;70810;52.038;8.524;2024-02-21T11:00:09;100334.38;;;9.98;68.53
81354;BME280;70810;52.038;8.524;2024-02-21T11:02:38;100337.13;;;9.76;69.49
81354;BME280;70810;52.038;8.524;2024-02-21T11:05:08;100314.16;;;9.70;69.28
81354;BME280;70810;52.038;8.524;2024-02-21T11:07:36;100319.94;;;9.61;70.69
81354;BME280;70810;52.038;8.524;2024-02-21T11:10:04;100315.41;;;9.82;69.09
81354;BME280;70810;52.038;8.524;2024-02-21T11:12:33;100324.16;;;10.06;68.90
81354;BME280;70810;52.038;8.524;2024-02-21T11:15:06;100309.34;;;9.98;68.70
81354;BME280;70810;52.038;8.524;2024-02-21T11:17:33;100313.53;;;10.24;68.48
81354;BME280;70810;52.038;8.524;2024-02-21T11:20:13;100307.00;;;10.11;68.59
81354;BME280;70810;52.038;8.524;2024-02-21T11:22:41;100293.47;;;10.14;69.49
81354;BME280;70810;52.038;8.524;2024-02-21T11:25:09;100284.19;;;10.02;69.30
81354;BME280;70810;52.038;8.524;2024-02-21T11:27:42;100281.31;;;9.86;70.33
81354;BME280;70810;52.038;8.524;2024-02-21T11:30:12;100265.19;;;10.25;70.01
81354;BME280;70810;52.038;8.524;2024-02-21T11:32:40;100257.31;;;10.41;68.41
81354;BME280;70810;52.038;8.524;2024-02-21T11:35:07;100252.47;;;10.67;67.66
81354;BME280;70810;52.038;8.524;2024-02-21T11:37:40;100252.72;;;10.62;67.91
81354;BME280;70810;52.038;8.524;2024-02-21T11:40:12;100239.91;;;10.50;68.25
81354;BME280;70810;52.038;8.524;2024-02-21T11:42:39;100236.22;;;10.53;67.54
81354;BME280;70810;52.038;8.524;2024-02-21T11:45:10;100236.44;;;10.66;67.44
81354;BME280;70810;52.038;8.524;2024-02-21T11:47:37;100227.63;;;10.63;67.67
81354;BME280;70810;52.038;8.524;2024-02-21T11:50:23;100224.84;;;10.09;69.12
81354;BME280;70810;52.038;8.524;2024-02-21T11:52:54;100212.81;;;9.99;69.69
81354;BME280;70810;52.038;8.524;2024-02-21T11:55:25;100207.47;;;9.99;70.26
81354;BME280;70810;52.038;8.524;2024-02-21T11:57:51;100208.09;;;10.04;69.51
81354;BME280;70810;52.038;8.524;2024-02-21T12:00:22;100204.94;;;10.15;70.48
81354;BME280;70810;52.038;8.524;2024-02-21T12:02:50;100196.97;;;9.95;70.43
81354;BME280;70810;52.038;8.524;2024-02-21T12:05:18;100195.88;;;9.80;70.43
81354;BME280;70810;52.038;8.524;2024-02-21T12:07:47;100193.56;;;9.72;71.30
81354;BME280;70810;52.038;8.524;2024-02-21T12:10:35;100189.44;;;9.65;71.39
81354;BME280;70810;52.038;8.524;2024-02-21T12:13:10;100187.09;;;9.57;71.94
81354;BME280;70810;52.038;8.524;2024-02-21T12:15:38;100182.78;;;9.74;70.81
81354;BME280;70810;52.038;8.524;2024-02-21T12:18:06;100192.03;;;9.85;71.39
81354;BME280;70810;52.038;8.524;2024-02-21T12:20:44;100187.56;;;10.05;70.52
81354;BME280;70810;52.038;8.524;2024-02-21T12:23:50;100175.09;;;9.85;71.86
81354;BME280;70810;52.038;8.524;2024-02-21T12:26:38;100183.94;;;9.87;72.19
81354;BME280;70810;52.038;8.524;2024-02-21T12:32:23;100149.25;;;9.65;71.68
81354;BME280;70810;52.038;8.524;2024-02-21T12:34:50;100151.78;;;9.68;72.13
81354;BME280;70810;52.038;8.524;2024-02-21T12:37:17;100153.09;;;9.78;72.21
81354;BME280;70810;52.038;8.524;2024-02-21T12:39:44;100142.00;;;9.86;71.86
81354;BME280;70810;52.038;8.524;2024-02-21T12:42:12;100134.28;;;9.80;72.24
81354;BME280;70810;52.038;8.524;2024-02-21T12:44:39;100133.03;;;9.68;73.13
81354;BME280;70810;52.038;8.524;2024-02-21T12:47:05;100113.50;;;9.85;72.36
81354;BME280;70810;52.038;8.524;2024-02-21T12:49:33;100104.78;;;9.99;71.81
81354;BME280;70810;52.038;8.524;2024-02-21T12:52:00;100100.63;;;10.11;72.54
81354;BME280;70810;52.038;8.524;2024-02-21T12:54:26;100089.03;;;10.10;71.36
81354;BME280;70810;52.038;8.524;2024-02-21T12:56:55;100078.06;;;10.15;71.03
81354;BME280;70810;52.038;8.524;2024-02-21T12:59:25;100084.19;;;9.99;71.09
81354;BME280;70810;52.038;8.524;2024-02-21T13:01:54;100090.91;;;9.71;72.54
81354;BME280;70810;52.038;8.524;2024-02-21T13:04:23;100083.66;;;9.74;73.15
81354;BME280;70810;52.038;8.524;2024-02-21T13:06:55;100084.41;;;9.58;73.46
81354;BME280;70810;52.038;8.524;2024-02-21T13:09:28;100082.09;;;9.31;74.08
81354;BME280;70810;52.038;8.524;2024-02-21T13:12:19;100062.63;;;9.28;73.56
81354;BME280;70810;52.038;8.524;2024-02-21T13:14:47;100045.75;;;9.45;73.69